sensor_id;sensor_type;location;lat;lon;timestamp;P1;durP1;ratioP1;P2;durP2;ratioP2
48809;SDS011;40070;47.322;18.784;2023-03-19T00:01:05;9.73;;;3.79;;
48809;SDS011;40070;47.322;18.784;2023-03-19T00:02:55;9.14;;;4.29;;
48809;SDS011;40070;47.322;18.784;2023-03-19T00:04:56;9.23;;;3.79;;
48809;SDS011;40070;47.322;18.784;2023-03-19T00:06:57;8.83;;;4.29;;
48809;SDS011;40070;47.322;18.784;2023-03-19T00:08:58;8.25;;;3.79;;
48809;SDS011;40070;47.322;18.784;2023-03-19T00:11:04;9.92;;;3.99;;
48809;SDS011;40070;47.322;18.784;2023-03-19T00:13:00;10.13;;;3.79;;
48809;SDS011;40070;47.322;18.784;2023-03-19T00:15:01;12.58;;;4.39;;
48809;SDS011;40070;47.322;18.784;2023-03-19T00:17:02;10.22;;;4.39;;
48809;SDS011;40070;47.322;18.784;2023-03-19T00:19:03;9.92;;;3.89;;
48809;SDS011;40070;47.322;18.784;2023-03-19T00:21:04;11.50;;;4.49;;
48809;SDS011;40070;47.322;18.784;2023-03-19T00:23:05;10.52;;;4.39;;
48809;SDS011;40070;47.322;18.784;2023-03-19T00:25:06;8.36;;;4.09;;
48809;SDS011;40070;47.322;18.784;2023-03-19T00:27:07;9.84;;;4.29;;
48809;SDS011;40070;47.322;18.784;2023-03-19T00:29:08;11.60;;;4.09;;
48809;SDS011;40070;47.322;18.784;2023-03-19T00:31:10;10.42;;;4.79;;
48809;SDS011;40070;47.322;18.784;2023-03-19T00:33:10;10.61;;;4.99;;
48809;SDS011;40070;47.322;18.784;2023-03-19T00:35:11;9.72;;;4.39;;
48809;SDS011;40070;47.322;18.784;2023-03-19T00:37:12;11.39;;;4.09;;
48809;SDS011;40070;47.322;18.784;2023-03-19T00:39:13;9.92;;;4.49;;
48809;SDS011;40070;47.322;18.784;2023-03-19T00:41:14;9.82;;;4.19;;
48809;SDS011;40070;47.322;18.784;2023-03-19T00:43:15;10.21;;;4.79;;
48809;SDS011;40070;47.322;18.784;2023-03-19T00:45:16;11.87;;;4.79;;
48809;SDS011;40070;47.322;18.784;2023-03-19T00:47:17;13.05;;;4.19;;
48809;SDS011;40070;47.322;18.784;2023-03-19T00:49:18;10.30;;;4.89;;
48809;SDS011;40070;47.322;18.784;2023-03-19T00:51:19;13.05;;;4.89;;
48809;SDS011;40070;47.322;18.784;2023-03-19T00:53:20;11.29;;;4.29;;
48809;SDS011;40070;47.322;18.784;2023-03-19T00:55:20;11.38;;;4.69;;
48809;SDS011;40070;47.322;18.784;2023-03-19T00:57:21;12.36;;;5.19;;
48809;SDS011;40070;47.322;18.784;2023-03-19T00:59:22;11.28;;;4.89;;
48809;SDS011;40070;47.322;18.784;2023-03-19T01:01:23;10.80;;;4.49;;
48809;SDS011;40070;47.322;18.784;2023-03-19T01:03:24;11.28;;;5.49;;
48809;SDS011;40070;47.322;18.784;2023-03-19T01:05:25;10.30;;;4.29;;
48809;SDS011;40070;47.322;18.784;2023-03-19T01:07:26;14.13;;;4.89;;
48809;SDS011;40070;47.322;18.784;2023-03-19T01:09:27;10.89;;;4.99;;
48809;SDS011;40070;47.322;18.784;2023-03-19T01:11:34;11.28;;;4.59;;
48809;SDS011;40070;47.322;18.784;2023-03-19T01:13:36;9.22;;;4.39;;
48809;SDS011;40070;47.322;18.784;2023-03-19T01:15:40;10.00;;;4.59;;
48809;SDS011;40070;47.322;18.784;2023-03-19T01:17:38;13.43;;;5.19;;
48809;SDS011;40070;47.322;18.784;2023-03-19T01:19:39;10.10;;;4.19;;
48809;SDS011;40070;47.322;18.784;2023-03-19T01:21:40;11.27;;;5.19;;
48809;SDS011;40070;47.322;18.784;2023-03-19T01:23:41;11.47;;;5.19;;
48809;SDS011;40070;47.322;18.784;2023-03-19T01:25:42;13.13;;;4.89;;
48809;SDS011;40070;47.322;18.784;2023-03-19T01:27:43;14.40;;;5.79;;
48809;SDS011;40070;47.322;18.784;2023-03-19T01:29:44;14.50;;;6.69;;
48809;SDS011;40070;47.322;18.784;2023-03-19T01:31:45;16.38;;;5.29;;
48809;SDS011;40070;47.322;18.784;2023-03-19T01:33:46;35.18;;;10.88;;
48809;SDS011;40070;47.322;18.784;2023-03-19T01:35:47;42.65;;;13.27;;
48809;SDS011;40070;47.322;18.784;2023-03-19T01:37:48;31.47;;;12.08;;
48809;SDS011;40070;47.322;18.784;2023-03-19T01:39:49;31.87;;;9.18;;
48809;SDS011;40070;47.322;18.784;2023-03-19T01:41:50;17.65;;;6.19;;
48809;SDS011;40070;47.322;18.784;2023-03-19T01:43:52;26.25;;;6.59;;
48809;SDS011;40070;47.322;18.784;2023-03-19T01:46:07;12.82;;;5.69;;
48809;SDS011;40070;47.322;18.784;2023-03-19T01:50:33;10.97;;;4.99;;
48809;SDS011;40070;47.322;18.784;2023-03-19T01:52:13;11.36;;;4.89;;
48809;SDS011;40070;47.322;18.784;2023-03-19T01:54:18;11.37;;;4.99;;
48809;SDS011;40070;47.322;18.784;2023-03-19T01:56:23;11.27;;;5.29;;
48809;SDS011;40070;47.322;18.784;2023-03-19T01:58:19;10.68;;;4.79;;
48809;SDS011;40070;47.322;18.784;2023-03-19T02:00:23;15.96;;;4.99;;
48809;SDS011;40070;47.322;18.784;2023-03-19T02:02:28;10.08;;;5.09;;
48809;SDS011;40070;47.322;18.784;2023-03-19T02:04:29;10.18;;;4.59;;
48809;SDS011;40070;47.322;18.784;2023-03-19T02:06:30;9.39;;;4.39;;
48809;SDS011;40070;47.322;18.784;2023-03-19T02:08:35;9.69;;;4.09;;
48809;SDS011;40070;47.322;18.784;2023-03-19T02:10:39;13.81;;;4.99;;
48809;SDS011;40070;47.322;18.784;2023-03-19T02:12:39;14.68;;;5.39;;
48809;SDS011;40070;47.322;18.784;2023-03-19T02:14:40;12.04;;;4.79;;
48809;SDS011;40070;47.322;18.784;2023-03-19T02:16:41;11.44;;;4.39;;
48809;SDS011;40070;47.322;18.784;2023-03-19T02:18:42;14.77;;;5.39;;
48809;SDS011;40070;47.322;18.784;2023-03-19T02:25:05;13.99;;;5.39;;
48809;SDS011;40070;47.322;18.784;2023-03-19T02:26:54;10.18;;;5.19;;
48809;SDS011;40070;47.322;18.784;2023-03-19T02:28:56;11.26;;;4.99;;
48809;SDS011;40070;47.322;18.784;2023-03-19T02:30:59;10.86;;;5.29;;
48809;SDS011;40070;47.322;18.784;2023-03-19T02:33:00;17.30;;;4.99;;
48809;SDS011;40070;47.322;18.784;2023-03-19T02:35:03;12.02;;;4.89;;
48809;SDS011;40070;47.322;18.784;2023-03-19T02:37:08;11.43;;;4.99;;
48809;SDS011;40070;47.322;18.784;2023-03-19T02:39:12;12.30;;;5.29;;
48809;SDS011;40070;47.322;18.784;2023-03-19T02:41:26;14.26;;;5.29;;
48809;SDS011;40070;47.322;18.784;2023-03-19T02:43:27;10.64;;;4.39;;
48809;SDS011;40070;47.322;18.784;2023-03-19T02:45:29;10.74;;;4.59;;
48809;SDS011;40070;47.322;18.784;2023-03-19T02:47:29;10.35;;;5.39;;
48809;SDS011;40070;47.322;18.784;2023-03-19T02:49:30;12.10;;;5.78;;
48809;SDS011;40070;47.322;18.784;2023-03-19T02:51:31;11.42;;;4.69;;
48809;SDS011;40070;47.322;18.784;2023-03-19T02:53:32;12.10;;;5.09;;
48809;SDS011;40070;47.322;18.784;2023-03-19T02:55:33;14.05;;;5.09;;
48809;SDS011;40070;47.322;18.784;2023-03-19T02:57:34;12.10;;;5.38;;
48809;SDS011;40070;47.322;18.784;2023-03-19T02:59:35;12.48;;;4.89;;
48809;SDS011;40070;47.322;18.784;2023-03-19T03:01:36;15.21;;;5.18;;
48809;SDS011;40070;47.322;18.784;2023-03-19T03:03:37;11.58;;;4.58;;
48809;SDS011;40070;47.322;18.784;2023-03-19T03:05:38;9.64;;;4.39;;
48809;SDS011;40070;47.322;18.784;2023-03-19T03:07:39;9.55;;;3.99;;
48809;SDS011;40070;47.322;18.784;2023-03-19T03:09:40;11.21;;;4.59;;
48809;SDS011;40070;47.322;18.784;2023-03-19T03:11:41;9.07;;;4.29;;
48809;SDS011;40070;47.322;18.784;2023-03-19T03:13:42;11.13;;;4.39;;
48809;SDS011;40070;47.322;18.784;2023-03-19T03:15:43;11.13;;;5.48;;
48809;SDS011;40070;47.322;18.784;2023-03-19T03:17:44;10.64;;;4.99;;
48809;SDS011;40070;47.322;18.784;2023-03-19T03:19:45;16.87;;;5.78;;
48809;SDS011;40070;47.322;18.784;2023-03-19T03:21:46;13.62;;;5.48;;
48809;SDS011;40070;47.322;18.784;2023-03-19T03:23:46;12.08;;;5.38;;
48809;SDS011;40070;47.322;18.784;2023-03-19T03:25:48;13.91;;;5.68;;
48809;SDS011;40070;47.322;18.784;2023-03-19T03:27:48;14.21;;;5.98;;
48809;SDS011;40070;47.322;18.784;2023-03-19T03:29:49;11.11;;;5.58;;
48809;SDS011;40070;47.322;18.784;2023-03-19T03:31:50;14.73;;;5.68;;
48809;SDS011;40070;47.322;18.784;2023-03-19T03:33:51;13.44;;;5.48;;
48809;SDS011;40070;47.322;18.784;2023-03-19T03:35:52;13.84;;;5.18;;
48809;SDS011;40070;47.322;18.784;2023-03-19T03:37:53;14.43;;;5.38;;
48809;SDS011;40070;47.322;18.784;2023-03-19T03:39:54;9.66;;;4.19;;
48809;SDS011;40070;47.322;18.784;2023-03-19T03:41:55;10.63;;;4.29;;
48809;SDS011;40070;47.322;18.784;2023-03-19T03:43:56;13.07;;;4.79;;
48809;SDS011;40070;47.322;18.784;2023-03-19T03:45:57;11.90;;;4.79;;
48809;SDS011;40070;47.322;18.784;2023-03-19T03:47:58;11.41;;;4.99;;
48809;SDS011;40070;47.322;18.784;2023-03-19T03:49:58;10.81;;;4.59;;
48809;SDS011;40070;47.322;18.784;2023-03-19T03:51:59;11.79;;;4.19;;
48809;SDS011;40070;47.322;18.784;2023-03-19T03:54:00;10.03;;;4.69;;
48809;SDS011;40070;47.322;18.784;2023-03-19T03:56:01;14.23;;;5.08;;
48809;SDS011;40070;47.322;18.784;2023-03-19T03:58:02;11.29;;;4.78;;
48809;SDS011;40070;47.322;18.784;2023-03-19T04:00:03;7.80;;;3.99;;
48809;SDS011;40070;47.322;18.784;2023-03-19T04:02:04;10.34;;;4.49;;
48809;SDS011;40070;47.322;18.784;2023-03-19T04:04:05;11.69;;;4.49;;
48809;SDS011;40070;47.322;18.784;2023-03-19T04:06:06;9.95;;;4.49;;
48809;SDS011;40070;47.322;18.784;2023-03-19T04:08:07;10.33;;;4.39;;
48809;SDS011;40070;47.322;18.784;2023-03-19T04:10:09;13.06;;;4.98;;
48809;SDS011;40070;47.322;18.784;2023-03-19T04:12:14;10.32;;;4.49;;
48809;SDS011;40070;47.322;18.784;2023-03-19T04:14:12;11.58;;;4.19;;
48809;SDS011;40070;47.322;18.784;2023-03-19T04:16:13;9.23;;;4.48;;
48809;SDS011;40070;47.322;18.784;2023-03-19T04:18:14;11.38;;;4.58;;
48809;SDS011;40070;47.322;18.784;2023-03-19T04:20:15;9.23;;;3.99;;
48809;SDS011;40070;47.322;18.784;2023-03-19T04:22:16;10.25;;;4.18;;
48809;SDS011;40070;47.322;18.784;2023-03-19T04:24:16;10.88;;;4.88;;
48809;SDS011;40070;47.322;18.784;2023-03-19T04:26:17;11.28;;;4.38;;
48809;SDS011;40070;47.322;18.784;2023-03-19T04:28:18;8.94;;;3.99;;
48809;SDS011;40070;47.322;18.784;2023-03-19T04:30:19;11.67;;;3.69;;
48809;SDS011;40070;47.322;18.784;2023-03-19T04:32:20;8.47;;;4.29;;
48809;SDS011;40070;47.322;18.784;2023-03-19T04:34:21;7.50;;;3.59;;
48809;SDS011;40070;47.322;18.784;2023-03-19T04:36:22;11.09;;;4.39;;
48809;SDS011;40070;47.322;18.784;2023-03-19T04:38:23;12.95;;;5.28;;
48809;SDS011;40070;47.322;18.784;2023-03-19T04:40:25;10.98;;;4.18;;
48809;SDS011;40070;47.322;18.784;2023-03-19T04:42:26;10.24;;;3.59;;
48809;SDS011;40070;47.322;18.784;2023-03-19T04:44:27;7.61;;;3.89;;
48809;SDS011;40070;47.322;18.784;2023-03-19T04:46:28;10.54;;;4.49;;
48809;SDS011;40070;47.322;18.784;2023-03-19T04:48:29;9.16;;;4.29;;
48809;SDS011;40070;47.322;18.784;2023-03-19T04:50:29;10.24;;;3.49;;
48809;SDS011;40070;47.322;18.784;2023-03-19T04:52:30;8.68;;;3.69;;
48809;SDS011;40070;47.322;18.784;2023-03-19T04:54:31;8.87;;;4.19;;
48809;SDS011;40070;47.322;18.784;2023-03-19T04:56:32;11.68;;;4.29;;
48809;SDS011;40070;47.322;18.784;2023-03-19T04:58:33;10.32;;;4.68;;
48809;SDS011;40070;47.322;18.784;2023-03-19T05:00:34;11.98;;;4.49;;
48809;SDS011;40070;47.322;18.784;2023-03-19T05:02:35;10.23;;;4.39;;
48809;SDS011;40070;47.322;18.784;2023-03-19T05:04:36;8.08;;;3.59;;
48809;SDS011;40070;47.322;18.784;2023-03-19T05:06:37;10.42;;;4.49;;
48809;SDS011;40070;47.322;18.784;2023-03-19T05:08:38;8.38;;;3.79;;
48809;SDS011;40070;47.322;18.784;2023-03-19T05:10:40;10.61;;;3.79;;
48809;SDS011;40070;47.322;18.784;2023-03-19T05:12:41;11.01;;;3.99;;
48809;SDS011;40070;47.322;18.784;2023-03-19T05:14:42;9.84;;;4.69;;
48809;SDS011;40070;47.322;18.784;2023-03-19T05:16:43;13.82;;;4.39;;
48809;SDS011;40070;47.322;18.784;2023-03-19T05:18:44;10.89;;;3.69;;
48809;SDS011;40070;47.322;18.784;2023-03-19T05:20:45;8.27;;;3.39;;
48809;SDS011;40070;47.322;18.784;2023-03-19T05:22:46;8.56;;;3.59;;
48809;SDS011;40070;47.322;18.784;2023-03-19T05:24:46;9.14;;;4.48;;
48809;SDS011;40070;47.322;18.784;2023-03-19T05:26:48;8.27;;;3.59;;
48809;SDS011;40070;47.322;18.784;2023-03-19T05:28:50;11.87;;;4.48;;
48809;SDS011;40070;47.322;18.784;2023-03-19T05:30:51;7.29;;;3.59;;
48809;SDS011;40070;47.322;18.784;2023-03-19T05:32:52;9.53;;;4.29;;
48809;SDS011;40070;47.322;18.784;2023-03-19T05:34:53;12.35;;;3.99;;
48809;SDS011;40070;47.322;18.784;2023-03-19T05:36:53;10.01;;;4.58;;
48809;SDS011;40070;47.322;18.784;2023-03-19T05:38:54;7.29;;;3.59;;
48809;SDS011;40070;47.322;18.784;2023-03-19T05:40:55;9.33;;;4.09;;
48809;SDS011;40070;47.322;18.784;2023-03-19T05:42:56;7.47;;;3.59;;
48809;SDS011;40070;47.322;18.784;2023-03-19T05:44:57;9.41;;;4.08;;
48809;SDS011;40070;47.322;18.784;2023-03-19T05:46:58;8.85;;;3.59;;
48809;SDS011;40070;47.322;18.784;2023-03-19T05:48:59;10.72;;;3.79;;
48809;SDS011;40070;47.322;18.784;2023-03-19T05:51:00;8.68;;;4.09;;
48809;SDS011;40070;47.322;18.784;2023-03-19T05:53:01;8.78;;;3.99;;
48809;SDS011;40070;47.322;18.784;2023-03-19T05:55:02;9.37;;;3.69;;
48809;SDS011;40070;47.322;18.784;2023-03-19T05:57:03;7.20;;;3.49;;
48809;SDS011;40070;47.322;18.784;2023-03-19T05:59:04;8.87;;;3.79;;
48809;SDS011;40070;47.322;18.784;2023-03-19T06:01:05;8.69;;;4.19;;
48809;SDS011;40070;47.322;18.784;2023-03-19T06:03:06;6.93;;;3.09;;
48809;SDS011;40070;47.322;18.784;2023-03-19T06:05:07;9.28;;;3.99;;
48809;SDS011;40070;47.322;18.784;2023-03-19T06:07:08;8.10;;;3.49;;
48809;SDS011;40070;47.322;18.784;2023-03-19T06:09:09;7.52;;;3.19;;
48809;SDS011;40070;47.322;18.784;2023-03-19T06:11:10;8.70;;;3.79;;
48809;SDS011;40070;47.322;18.784;2023-03-19T06:13:11;7.24;;;3.79;;
48809;SDS011;40070;47.322;18.784;2023-03-19T06:15:11;8.42;;;3.29;;
48809;SDS011;40070;47.322;18.784;2023-03-19T06:17:12;7.24;;;3.49;;
48809;SDS011;40070;47.322;18.784;2023-03-19T06:19:13;7.15;;;3.29;;
48809;SDS011;40070;47.322;18.784;2023-03-19T06:21:14;6.76;;;3.19;;
48809;SDS011;40070;47.322;18.784;2023-03-19T06:23:15;8.53;;;3.39;;
48809;SDS011;40070;47.322;18.784;2023-03-19T06:25:16;8.72;;;3.39;;
48809;SDS011;40070;47.322;18.784;2023-03-19T06:27:17;12.33;;;3.69;;
48809;SDS011;40070;47.322;18.784;2023-03-19T06:29:18;8.69;;;3.29;;
48809;SDS011;40070;47.322;18.784;2023-03-19T06:31:19;8.38;;;3.69;;
48809;SDS011;40070;47.322;18.784;2023-03-19T06:33:20;9.54;;;3.89;;
48809;SDS011;40070;47.322;18.784;2023-03-19T06:35:20;9.36;;;3.29;;
48809;SDS011;40070;47.322;18.784;2023-03-19T06:37:21;7.62;;;2.89;;
48809;SDS011;40070;47.322;18.784;2023-03-19T06:39:22;6.36;;;3.09;;
48809;SDS011;40070;47.322;18.784;2023-03-19T06:41:23;6.45;;;3.09;;
48809;SDS011;40070;47.322;18.784;2023-03-19T06:43:24;6.06;;;2.69;;
48809;SDS011;40070;47.322;18.784;2023-03-19T06:45:25;6.45;;;2.79;;
48809;SDS011;40070;47.322;18.784;2023-03-19T06:47:26;7.83;;;2.89;;
48809;SDS011;40070;47.322;18.784;2023-03-19T06:49:27;8.12;;;3.09;;
48809;SDS011;40070;47.322;18.784;2023-03-19T06:51:28;7.34;;;3.19;;
48809;SDS011;40070;47.322;18.784;2023-03-19T06:53:29;5.87;;;2.69;;
48809;SDS011;40070;47.322;18.784;2023-03-19T06:55:30;7.83;;;2.99;;
48809;SDS011;40070;47.322;18.784;2023-03-19T06:57:31;6.77;;;2.79;;
48809;SDS011;40070;47.322;18.784;2023-03-19T06:59:32;6.58;;;2.89;;
48809;SDS011;40070;47.322;18.784;2023-03-19T07:01:33;6.78;;;2.40;;
48809;SDS011;40070;47.322;18.784;2023-03-19T07:03:34;4.73;;;2.30;;
48809;SDS011;40070;47.322;18.784;2023-03-19T07:05:35;6.98;;;2.50;;
48809;SDS011;40070;47.322;18.784;2023-03-19T07:07:36;5.81;;;2.30;;
48809;SDS011;40070;47.322;18.784;2023-03-19T07:09:37;5.91;;;2.80;;
48809;SDS011;40070;47.322;18.784;2023-03-19T07:11:38;5.51;;;2.40;;
48809;SDS011;40070;47.322;18.784;2023-03-19T07:13:38;7.87;;;2.90;;
48809;SDS011;40070;47.322;18.784;2023-03-19T07:15:40;7.08;;;2.90;;
48809;SDS011;40070;47.322;18.784;2023-03-19T07:17:41;6.80;;;3.00;;
48809;SDS011;40070;47.322;18.784;2023-03-19T07:19:42;6.50;;;3.00;;
48809;SDS011;40070;47.322;18.784;2023-03-19T07:21:42;8.47;;;2.40;;
48809;SDS011;40070;47.322;18.784;2023-03-19T07:23:43;6.41;;;2.80;;
48809;SDS011;40070;47.322;18.784;2023-03-19T07:25:44;8.08;;;3.00;;
48809;SDS011;40070;47.322;18.784;2023-03-19T07:27:45;8.86;;;2.90;;
48809;SDS011;40070;47.322;18.784;2023-03-19T07:29:46;5.32;;;2.30;;
48809;SDS011;40070;47.322;18.784;2023-03-19T07:31:47;5.52;;;2.50;;
48809;SDS011;40070;47.322;18.784;2023-03-19T07:33:48;5.43;;;2.10;;
48809;SDS011;40070;47.322;18.784;2023-03-19T07:35:49;5.83;;;2.60;;
48809;SDS011;40070;47.322;18.784;2023-03-19T07:37:50;10.17;;;2.60;;
48809;SDS011;40070;47.322;18.784;2023-03-19T07:39:51;5.54;;;2.30;;
48809;SDS011;40070;47.322;18.784;2023-03-19T07:41:52;6.72;;;2.40;;
48809;SDS011;40070;47.322;18.784;2023-03-19T07:43:53;5.64;;;2.40;;
48809;SDS011;40070;47.322;18.784;2023-03-19T07:45:53;5.24;;;1.90;;
48809;SDS011;40070;47.322;18.784;2023-03-19T07:47:54;5.15;;;2.20;;
48809;SDS011;40070;47.322;18.784;2023-03-19T07:49:56;5.74;;;2.50;;
48809;SDS011;40070;47.322;18.784;2023-03-19T07:51:56;4.95;;;2.70;;
48809;SDS011;40070;47.322;18.784;2023-03-19T07:53:57;7.53;;;2.40;;
48809;SDS011;40070;47.322;18.784;2023-03-19T07:55:58;6.15;;;2.50;;
48809;SDS011;40070;47.322;18.784;2023-03-19T07:57:59;7.93;;;2.60;;
48809;SDS011;40070;47.322;18.784;2023-03-19T08:00:00;6.94;;;2.70;;
48809;SDS011;40070;47.322;18.784;2023-03-19T08:02:01;5.06;;;2.40;;
48809;SDS011;40070;47.322;18.784;2023-03-19T08:04:02;10.42;;;2.30;;
48809;SDS011;40070;47.322;18.784;2023-03-19T08:06:03;7.04;;;2.30;;
48809;SDS011;40070;47.322;18.784;2023-03-19T08:08:04;7.44;;;2.30;;
48809;SDS011;40070;47.322;18.784;2023-03-19T08:10:05;6.64;;;2.20;;
48809;SDS011;40070;47.322;18.784;2023-03-19T08:12:06;6.26;;;2.30;;
48809;SDS011;40070;47.322;18.784;2023-03-19T08:14:06;5.46;;;2.40;;
48809;SDS011;40070;47.322;18.784;2023-03-19T08:16:07;4.96;;;1.80;;
48809;SDS011;40070;47.322;18.784;2023-03-19T08:18:08;6.76;;;2.40;;
48809;SDS011;40070;47.322;18.784;2023-03-19T08:20:10;5.36;;;2.10;;
48809;SDS011;40070;47.322;18.784;2023-03-19T08:22:10;5.46;;;1.90;;
48809;SDS011;40070;47.322;18.784;2023-03-19T08:24:11;4.87;;;1.90;;
48809;SDS011;40070;47.322;18.784;2023-03-19T08:26:12;4.87;;;2.10;;
48809;SDS011;40070;47.322;18.784;2023-03-19T08:28:13;4.87;;;2.00;;
48809;SDS011;40070;47.322;18.784;2023-03-19T08:30:14;4.97;;;2.20;;
48809;SDS011;40070;47.322;18.784;2023-03-19T08:32:15;5.67;;;2.30;;
48809;SDS011;40070;47.322;18.784;2023-03-19T08:34:16;5.46;;;2.30;;
48809;SDS011;40070;47.322;18.784;2023-03-19T08:36:17;4.37;;;2.10;;
48809;SDS011;40070;47.322;18.784;2023-03-19T08:38:17;4.77;;;1.90;;
48809;SDS011;40070;47.322;18.784;2023-03-19T08:40:20;5.67;;;2.10;;
48809;SDS011;40070;47.322;18.784;2023-03-19T08:42:21;6.76;;;2.20;;
48809;SDS011;40070;47.322;18.784;2023-03-19T08:44:22;5.87;;;2.30;;
48809;SDS011;40070;47.322;18.784;2023-03-19T08:46:23;4.48;;;1.90;;
48809;SDS011;40070;47.322;18.784;2023-03-19T08:48:24;6.27;;;1.90;;
48809;SDS011;40070;47.322;18.784;2023-03-19T08:50:25;5.27;;;1.90;;
48809;SDS011;40070;47.322;18.784;2023-03-19T08:52:25;5.18;;;1.90;;
48809;SDS011;40070;47.322;18.784;2023-03-19T08:54:26;6.57;;;2.30;;
48809;SDS011;40070;47.322;18.784;2023-03-19T08:56:30;5.27;;;2.20;;
48809;SDS011;40070;47.322;18.784;2023-03-19T08:58:31;6.27;;;2.40;;
48809;SDS011;40070;47.322;18.784;2023-03-19T09:00:32;5.58;;;2.10;;
48809;SDS011;40070;47.322;18.784;2023-03-19T09:02:33;4.98;;;2.10;;
48809;SDS011;40070;47.322;18.784;2023-03-19T09:04:34;4.28;;;2.00;;
48809;SDS011;40070;47.322;18.784;2023-03-19T09:06:36;4.68;;;2.00;;
48809;SDS011;40070;47.322;18.784;2023-03-19T09:08:37;5.58;;;1.90;;
48809;SDS011;40070;47.322;18.784;2023-03-19T09:10:38;3.59;;;1.80;;
48809;SDS011;40070;47.322;18.784;2023-03-19T09:12:40;5.18;;;2.20;;
48809;SDS011;40070;47.322;18.784;2023-03-19T09:14:41;4.59;;;1.80;;
48809;SDS011;40070;47.322;18.784;2023-03-19T09:16:42;4.39;;;1.90;;
48809;SDS011;40070;47.322;18.784;2023-03-19T09:18:44;5.49;;;1.80;;
48809;SDS011;40070;47.322;18.784;2023-03-19T09:20:45;5.69;;;2.00;;
48809;SDS011;40070;47.322;18.784;2023-03-19T09:22:46;4.09;;;1.80;;
48809;SDS011;40070;47.322;18.784;2023-03-19T09:24:47;5.69;;;1.80;;
48809;SDS011;40070;47.322;18.784;2023-03-19T09:26:47;3.59;;;1.60;;
48809;SDS011;40070;47.322;18.784;2023-03-19T09:28:49;4.69;;;1.70;;
48809;SDS011;40070;47.322;18.784;2023-03-19T09:30:50;4.59;;;2.10;;
48809;SDS011;40070;47.322;18.784;2023-03-19T09:32:51;5.29;;;1.80;;
48809;SDS011;40070;47.322;18.784;2023-03-19T09:34:52;4.69;;;1.70;;
48809;SDS011;40070;47.322;18.784;2023-03-19T09:36:52;4.69;;;1.90;;
48809;SDS011;40070;47.322;18.784;2023-03-19T09:38:53;5.49;;;1.80;;
48809;SDS011;40070;47.322;18.784;2023-03-19T09:41:07;5.89;;;1.70;;
48809;SDS011;40070;47.322;18.784;2023-03-19T09:43:38;4.79;;;1.80;;
48809;SDS011;40070;47.322;18.784;2023-03-19T09:45:17;4.19;;;1.90;;
48809;SDS011;40070;47.322;18.784;2023-03-19T09:47:28;5.59;;;1.80;;
48809;SDS011;40070;47.322;18.784;2023-03-19T09:49:38;4.69;;;1.90;;
48809;SDS011;40070;47.322;18.784;2023-03-19T09:51:47;5.59;;;1.80;;
48809;SDS011;40070;47.322;18.784;2023-03-19T09:54:07;5.49;;;2.20;;
48809;SDS011;40070;47.322;18.784;2023-03-19T09:56:12;4.39;;;2.00;;
48809;SDS011;40070;47.322;18.784;2023-03-19T09:58:23;6.99;;;2.10;;
48809;SDS011;40070;47.322;18.784;2023-03-19T10:02:33;3.69;;;1.80;;
48809;SDS011;40070;47.322;18.784;2023-03-19T10:04:47;4.89;;;2.00;;
48809;SDS011;40070;47.322;18.784;2023-03-19T10:06:59;4.49;;;2.00;;
48809;SDS011;40070;47.322;18.784;2023-03-19T10:11:37;3.99;;;1.90;;
48809;SDS011;40070;47.322;18.784;2023-03-19T10:13:43;4.69;;;1.80;;
48809;SDS011;40070;47.322;18.784;2023-03-19T10:15:46;4.29;;;1.90;;
48809;SDS011;40070;47.322;18.784;2023-03-19T10:17:55;3.60;;;1.60;;
48809;SDS011;40070;47.322;18.784;2023-03-19T10:20:04;4.99;;;2.10;;
48809;SDS011;40070;47.322;18.784;2023-03-19T10:22:14;5.59;;;1.90;;
48809;SDS011;40070;47.322;18.784;2023-03-19T10:24:31;4.39;;;1.60;;
48809;SDS011;40070;47.322;18.784;2023-03-19T10:26:30;5.69;;;1.80;;
48809;SDS011;40070;47.322;18.784;2023-03-19T10:28:31;3.89;;;1.80;;
48809;SDS011;40070;47.322;18.784;2023-03-19T10:30:32;3.40;;;1.40;;
48809;SDS011;40070;47.322;18.784;2023-03-19T10:32:45;4.19;;;1.80;;
48809;SDS011;40070;47.322;18.784;2023-03-19T10:35:09;4.19;;;1.60;;
48809;SDS011;40070;47.322;18.784;2023-03-19T10:39:10;3.80;;;1.60;;
48809;SDS011;40070;47.322;18.784;2023-03-19T10:41:20;4.00;;;1.80;;
48809;SDS011;40070;47.322;18.784;2023-03-19T10:43:31;5.09;;;1.90;;
48809;SDS011;40070;47.322;18.784;2023-03-19T10:45:56;5.09;;;1.90;;
48809;SDS011;40070;47.322;18.784;2023-03-19T10:47:58;6.59;;;2.00;;
48809;SDS011;40070;47.322;18.784;2023-03-19T10:49:58;4.10;;;2.00;;
48809;SDS011;40070;47.322;18.784;2023-03-19T10:51:59;5.99;;;2.10;;
48809;SDS011;40070;47.322;18.784;2023-03-19T10:54:16;3.80;;;1.80;;
48809;SDS011;40070;47.322;18.784;2023-03-19T10:56:06;4.90;;;1.90;;
48809;SDS011;40070;47.322;18.784;2023-03-19T10:58:16;4.20;;;1.70;;
48809;SDS011;40070;47.322;18.784;2023-03-19T11:00:18;5.70;;;2.00;;
48809;SDS011;40070;47.322;18.784;2023-03-19T11:02:18;3.90;;;1.70;;
48809;SDS011;40070;47.322;18.784;2023-03-19T11:04:22;3.70;;;1.50;;
48809;SDS011;40070;47.322;18.784;2023-03-19T11:06:34;4.80;;;1.60;;
48809;SDS011;40070;47.322;18.784;2023-03-19T11:08:36;4.80;;;1.90;;
48809;SDS011;40070;47.322;18.784;2023-03-19T11:10:46;5.70;;;2.10;;
48809;SDS011;40070;47.322;18.784;2023-03-19T11:12:53;4.60;;;2.00;;
48809;SDS011;40070;47.322;18.784;2023-03-19T11:15:14;5.50;;;1.90;;
48809;SDS011;40070;47.322;18.784;2023-03-19T11:19:23;5.80;;;1.60;;
48809;SDS011;40070;47.322;18.784;2023-03-19T11:21:29;4.10;;;1.70;;
48809;SDS011;40070;47.322;18.784;2023-03-19T11:23:36;4.40;;;2.00;;
48809;SDS011;40070;47.322;18.784;2023-03-19T11:25:59;4.30;;;2.20;;
48809;SDS011;40070;47.322;18.784;2023-03-19T11:27:59;5.10;;;1.80;;
48809;SDS011;40070;47.322;18.784;2023-03-19T11:30:00;5.00;;;1.80;;
48809;SDS011;40070;47.322;18.784;2023-03-19T11:32:24;5.30;;;1.80;;
48809;SDS011;40070;47.322;18.784;2023-03-19T11:34:59;4.20;;;1.70;;
48809;SDS011;40070;47.322;18.784;2023-03-19T11:39:06;4.60;;;1.70;;
48809;SDS011;40070;47.322;18.784;2023-03-19T11:43:42;4.20;;;1.60;;
48809;SDS011;40070;47.322;18.784;2023-03-19T11:45:48;3.70;;;1.60;;
48809;SDS011;40070;47.322;18.784;2023-03-19T11:49:03;4.00;;;1.80;;
48809;SDS011;40070;47.322;18.784;2023-03-19T11:50:21;4.40;;;1.90;;
48809;SDS011;40070;47.322;18.784;2023-03-19T11:52:32;3.90;;;1.70;;
48809;SDS011;40070;47.322;18.784;2023-03-19T11:54:44;4.60;;;1.90;;
48809;SDS011;40070;47.322;18.784;2023-03-19T11:56:59;4.30;;;1.90;;
48809;SDS011;40070;47.322;18.784;2023-03-19T11:59:31;10.40;;;3.70;;
48809;SDS011;40070;47.322;18.784;2023-03-19T12:01:40;7.20;;;2.90;;
48809;SDS011;40070;47.322;18.784;2023-03-19T12:08:30;5.30;;;1.80;;
48809;SDS011;40070;47.322;18.784;2023-03-19T12:15:30;4.80;;;1.80;;
48809;SDS011;40070;47.322;18.784;2023-03-19T12:17:44;3.90;;;1.50;;
48809;SDS011;40070;47.322;18.784;2023-03-19T12:20:18;4.00;;;1.60;;
48809;SDS011;40070;47.322;18.784;2023-03-19T12:22:20;5.10;;;1.80;;
48809;SDS011;40070;47.322;18.784;2023-03-19T12:26:42;5.50;;;2.10;;
48809;SDS011;40070;47.322;18.784;2023-03-19T12:32:06;4.30;;;1.80;;
48809;SDS011;40070;47.322;18.784;2023-03-19T12:33:48;3.80;;;1.60;;
48809;SDS011;40070;47.322;18.784;2023-03-19T12:35:39;4.40;;;1.90;;
48809;SDS011;40070;47.322;18.784;2023-03-19T12:38:16;3.90;;;1.80;;